• Join FlightAware (Why Join?)
  • Login
  • US Flag 
06:01PM EDT


 

Airport Tracker/Info


-or-


 

Live Flight TrackerFlight Track Log ✈ N1069F ✈ 26-Apr-2013 ✈ KCOU - KDPA

Flight Track Log - Related Links

Times and Time Zones

All times are in EDT time to prevent confusion due to time zone crossing. See the N1069F flight status page for this flight to view local times or setup timezone preferences in your user account.

Time Position Orientation Groundspeed Altitude Reporting Facility
EDT Latitude Longitude Course Direction KTS MPH feet Rate Location/Type
05:25PM 38.9031 -92.1342 27° Northeast 126 145 4,700  Level Kansas City Center
05:26PM 38.9372 -92.1111 28° Northeast 132 152 5,600 780 Climbing Kansas City Center
05:27PM 38.9725 -92.0886 26° Northeast 137 158 6,400 720 Climbing Kansas City Center
05:28PM 39.0331 -92.0023 34° Northeast  Level FlightAware Approximate
05:28PM 38.9986 -92.0544 45° Northeast 134 154 7,100  Level Kansas City Center
05:29PM 39.0708 -91.9693 34° Northeast  Level FlightAware Approximate
05:29PM 39.0303 -92.0225 38° Northeast 138 159 7,000  Level Kansas City Center
05:30PM 39.0700 -91.9908 32° Northeast 154 177 7,000  Level Kansas City Center
05:31PM 39.1089 -91.9592 32° Northeast 161 185 7,000  Level Kansas City Center
05:32PM 39.1542 -91.9172 36° Northeast 165 190 7,000  Level Kansas City Center
05:33PM 39.1922 -91.8833 35° Northeast 167 192 7,000  Level Kansas City Center
05:34PM 39.2306 -91.8478 36° Northeast 167 192 7,000  Level Kansas City Center
05:35PM 39.2667 -91.8158 34° Northeast 167 192 7,000  Level Kansas City Center
05:36PM 39.3042 -91.7817 35° Northeast 166 191 7,000  Level Kansas City Center
05:37PM 39.3492 -91.7400 36° Northeast 166 191 7,000  Level Kansas City Center
05:38PM 39.3864 -91.7058 35° Northeast 166 191 7,000  Level Kansas City Center
05:39PM 39.4272 -91.6675 36° Northeast 171 197 7,000  Level Kansas City Center
05:40PM 39.4661 -91.6322 35° Northeast 171 197 7,000  Level Kansas City Center
05:41PM 39.5047 -91.5969 35° Northeast 170 196 7,000  Level Kansas City Center
05:43PM 39.5469 -91.5575 36° Northeast 168 193 7,000  Level Kansas City Center
05:44PM 39.5867 -91.5228 34° Northeast 171 197 7,000  Level Kansas City Center
05:45PM 39.6258 -91.4856 36° Northeast 173 199 7,000  Level Kansas City Center
05:46PM 39.6650 -91.4494 35° Northeast 174 200 7,000  Level Kansas City Center
05:47PM 39.7044 -91.4125 36° Northeast 175 201 7,000  Level Kansas City Center
05:48PM 39.7514 -91.3703 35° Northeast 174 200 7,000  Level Kansas City Center
05:49PM 39.7903 -91.3336 36° Northeast 174 200 7,000  Level Kansas City Center
05:50PM 39.8303 -91.2978 35° Northeast 175 201 7,000  Level Kansas City Center
05:51PM 39.8669 -91.2589 39° Northeast 174 200 7,000  Level Kansas City Center
05:52PM 39.8992 -91.2111 49° Northeast 175 201 7,000  Level Kansas City Center
05:53PM 39.9358 -91.1544 50° Northeast 173 199 7,000  Level Kansas City Center
05:54PM 39.9678 -91.1067 49° Northeast 175 201 7,000  Level Kansas City Center
05:55PM 40.0011 -91.0597 47° Northeast 177 204 7,000  Level Kansas City Center
05:56PM 40.0342 -91.0125 48° Northeast 177 204 7,000  Level Kansas City Center
05:57PM 40.0661 -90.9631 50° Northeast 178 205 7,000  Level Kansas City Center
05:58PM 40.1075 -90.9050 47° Northeast 179 206 7,000  Level Kansas City Center
05:59PM 40.1394 -90.8544 50° Northeast 180 207 7,000  Level Kansas City Center
06:00PM 40.1578 -90.8281 48° Northeast 177 204 7,000  Level Chicago Center
06:01PM 40.1931 -90.7769 48° Northeast 180 207 7,000  Level Chicago Center
06:02PM 40.2275 -90.7286 47° Northeast 181 208 7,000  Level Chicago Center
06:03PM 40.2606 -90.6794 49° Northeast 180 207 7,000  Level Chicago Center
06:04PM 40.2939 -90.6297 49° Northeast 180 207 7,000  Level Chicago Center
06:05PM 40.3344 -90.5694 49° Northeast 182 209 7,000  Level Chicago Center
06:06PM 40.3689 -90.5197 48° Northeast 184 212 7,000  Level Chicago Center
06:07PM 40.4025 -90.4700 48° Northeast 183 211 7,000  Level Chicago Center
06:08PM 40.4353 -90.4194 50° Northeast 182 209 7,000  Level Chicago Center
06:09PM 40.4686 -90.3686 49° Northeast 184 212 7,000  Level Chicago Center
06:10PM 40.5025 -90.3197 48° Northeast 181 208 7,000  Level Chicago Center
06:11PM 40.5583 -90.2964 18° North 187 215 7,000  Level Chicago Center
06:12PM 40.5953 -90.2519 42° Northeast 183 211 7,000  Level Chicago Center
06:13PM 40.6314 -90.2053 44° Northeast 182 209 7,000  Level Chicago Center
06:14PM 40.6700 -90.1628 40° Northeast 181 208 7,000  Level Chicago Center
06:15PM 40.7083 -90.1181 41° Northeast 182 209 7,000  Level Chicago Center
06:16PM 40.7467 -90.0742 41° Northeast 182 209 7,000  Level Chicago Center
06:17PM 40.7850 -90.0292 42° Northeast 182 209 7,000  Level Chicago Center
06:18PM 40.8317 -89.9756 41° Northeast 184 212 7,000  Level Chicago Center
06:19PM 40.8706 -89.9303 41° Northeast 184 212 7,000  Level Chicago Center
06:20PM 40.9086 -89.8844 42° Northeast 184 212 7,000  Level Chicago Center
06:21PM 40.9483 -89.8386 41° Northeast 187 215 7,000  Level Chicago Center
06:22PM 40.9875 -89.7919 42° Northeast 188 216 7,000  Level Chicago Center
06:23PM 41.0269 -89.7458 41° Northeast 189 217 7,000  Level Chicago Center
06:24PM 41.0667 -89.7008 40° Northeast 188 216 7,000  Level Chicago Center
06:26PM 41.1131 -89.6450 42° Northeast 188 216 7,100  Climbing Chicago Center
06:27PM 41.1531 -89.5992 41° Northeast 189 217 7,100  Level Chicago Center
06:28PM 41.1850 -89.5444 52° Northeast 188 216 7,100  Level Chicago Center
06:29PM 41.2117 -89.4819 60° Northeast 190 219 7,100  Level Chicago Center
06:30PM 41.2400 -89.4211 58° Northeast 192 221 7,100 -240 Level Chicago Center
06:31PM 41.2686 -89.3581 59° Northeast 196 226 6,700 -420 Descending Chicago Center
06:32PM 41.2975 -89.2944 59° Northeast 200 230 6,300 -480 Descending Chicago Center
06:33PM 41.3319 -89.2206 58° Northeast 195 224 5,800 -540 Descending Chicago Center
06:34PM 41.3594 -89.1639 57° Northeast 191 220 5,300 -360 Descending Chicago Center
06:35PM 41.3861 -89.1056 59° Northeast 186 214 5,100 -180 Descending Chicago Center
06:36PM 41.4100 -89.0494 60° Northeast 179 206 5,000 -60 Descending Chicago Center
06:37PM 41.4436 -88.9858 55° Northeast 176 203 5,000  Level Chicago Center
06:38PM 41.4697 -88.9286 59° Northeast 178 205 5,000  Level Chicago Center
06:39PM 41.4950 -88.8728 59° Northeast 177 204 5,000  Level Chicago Center
06:40PM 41.5211 -88.8175 58° Northeast 177 204 5,000  Level Chicago Center
06:41PM 41.5458 -88.7622 59° Northeast 175 201 5,000  Level Chicago Center
06:42PM 41.5764 -88.6953 59° Northeast 175 201 5,000  Level Chicago Center
06:43PM 41.6022 -88.6392 58° Northeast 177 204 5,000  Level Chicago Center
06:44PM 41.6303 -88.5858 55° Northeast 177 204 5,000 -360 Level Chicago Center
06:45PM 41.6664 -88.5356 46° Northeast 183 211 4,300 -660 Descending Chicago Center
06:46PM 41.7033 -88.4911 42° Northeast 182 209 3,700 -600 Descending Chicago Center
06:47PM 41.7519 -88.4647 22° Northeast 186 214 3,100 -300 Descending Chicago Center
06:48PM 41.8075 -88.4372 20° North 183 211 3,100 -180 Level Chicago Center
06:49PM 41.8389 -88.3881 49° Northeast 177 204 2,800 -420 Descending Chicago Center
06:50PM 41.8694 -88.3386 50° Northeast 175 201 2,300 -480 Descending Chicago Center
06:51PM 41.8992 -88.2917 50° Northeast 171 197 1,900 -300 Descending Chicago Center
06:52PM 41.9308 -88.2731 24° Northeast 143 165 1,700 -300 Descending Chicago Center
06:53PM 41.9356 -88.2450 77° East 118 136 1,400 -300 Descending Chicago Center
06:54PM 41.9122 -88.2367 165° South 109 125 1,200 -240 Descending Chicago Center